Terminal Aerodrome Forecast
Issued by NWS

Home | Current Version | Previous Version | Text Only | Print | Product List | Glossary On
Versions: 1 2 3 4 5 6 7 8 9 10 11 12 13 14 15
571
FTAK31 PAJN 302130 AAA
TAFASI
TAF AMD
PASI 302130Z 3022/3118 15012KT P6SM VCSH BKN050 OVC120
     FM310000 14012G20KT P6SM VCSH OVC040 WS020/15035KT
     FM310200 13015G30KT 6SM -RA BR BKN030 OVC040 WS020/15045KT
     FM310500 13025G35KT 3SM RA BR BKN020 OVC030 WS020/15050KT
     FM311200 15015G25KT 4SM -RA BR OVC020=

USA.gov is the U.S. government's official web portal to all federal, state and local government web resources and services.